createdAt,value
2018-12-27T00:01:07.831Z,3.60
2018-12-27T00:03:39.942Z,3.60
2018-12-27T00:06:10.725Z,3.60
2018-12-27T00:08:41.741Z,3.60
2018-12-27T00:11:12.673Z,3.60
2018-12-27T00:13:43.605Z,3.60
2018-12-27T00:16:14.132Z,3.50
2018-12-27T00:18:44.876Z,3.50
2018-12-27T00:21:15.705Z,3.50
2018-12-27T00:23:46.229Z,3.50
2018-12-27T00:26:17.625Z,3.50
2018-12-27T00:28:48.761Z,3.50
2018-12-27T00:31:21.133Z,3.40
2018-12-27T00:33:52.137Z,3.40
2018-12-27T00:36:22.844Z,3.40
2018-12-27T00:38:53.855Z,3.40
2018-12-27T00:41:24.916Z,3.30
2018-12-27T00:43:55.957Z,3.30
2018-12-27T00:46:26.971Z,3.30
2018-12-27T00:48:58.056Z,3.30
2018-12-27T00:51:28.988Z,3.30
2018-12-27T00:53:59.971Z,3.20
2018-12-27T00:56:30.905Z,3.20
2018-12-27T00:59:03.869Z,3.20
2018-12-27T01:01:35.076Z,3.20
2018-12-27T01:04:06.099Z,3.20
2018-12-27T01:06:36.902Z,3.20
2018-12-27T01:09:07.692Z,3.20
2018-12-27T01:11:38.693Z,3.20
2018-12-27T01:14:09.658Z,3.20
2018-12-27T01:16:40.521Z,3.20
2018-12-27T01:19:11.492Z,3.10
2018-12-27T01:21:42.381Z,3.10
2018-12-27T01:24:13.213Z,3.00
2018-12-27T01:26:44.173Z,3.00
2018-12-27T01:29:15.149Z,3.00
2018-12-27T01:31:50.608Z,3.00
2018-12-27T01:34:18.517Z,2.90
2018-12-27T01:36:49.592Z,2.90
2018-12-27T01:39:20.697Z,2.90
2018-12-27T01:41:51.813Z,2.90
2018-12-27T01:44:22.696Z,2.90
2018-12-27T01:46:53.961Z,2.90
2018-12-27T01:49:24.769Z,2.80
2018-12-27T01:51:55.840Z,2.80
2018-12-27T01:54:26.782Z,2.80
2018-12-27T01:56:57.634Z,2.80
2018-12-27T01:59:28.721Z,2.80
2018-12-27T02:01:59.724Z,2.70
2018-12-27T02:04:30.550Z,2.70
2018-12-27T02:07:01.593Z,2.60
2018-12-27T02:09:32.382Z,2.60
2018-12-27T02:12:03.408Z,2.60
2018-12-27T02:14:34.461Z,2.60
2018-12-27T02:17:05.422Z,2.50
2018-12-27T02:19:36.348Z,2.50
2018-12-27T02:22:07.393Z,2.50
2018-12-27T02:24:39.948Z,2.50
2018-12-27T02:27:11.126Z,2.50
2018-12-27T02:29:42.004Z,2.50
2018-12-27T02:32:12.686Z,2.40
2018-12-27T02:34:43.810Z,2.40
2018-12-27T02:37:15.304Z,2.40
2018-12-27T02:39:46.405Z,2.40
2018-12-27T02:42:17.562Z,2.30
2018-12-27T02:44:48.737Z,2.30
2018-12-27T02:47:19.550Z,2.30
2018-12-27T02:49:50.382Z,2.30
2018-12-27T02:52:21.422Z,2.20
2018-12-27T02:54:52.422Z,2.20
2018-12-27T02:57:23.220Z,2.20
2018-12-27T02:59:54.328Z,2.20
2018-12-27T03:02:25.486Z,2.20
2018-12-27T03:04:56.226Z,2.20
2018-12-27T03:07:27.385Z,2.10
2018-12-27T03:09:58.157Z,2.10
2018-12-27T03:12:28.929Z,2.10
2018-12-27T03:14:59.691Z,2.10
2018-12-27T03:17:30.609Z,2.10
2018-12-27T03:20:01.511Z,2.10
2018-12-27T03:22:33.036Z,2.00
2018-12-27T03:25:03.832Z,2.10
2018-12-27T03:27:34.874Z,2.10
2018-12-27T03:30:05.850Z,2.10
2018-12-27T03:32:36.828Z,2.10
2018-12-27T03:35:07.608Z,2.10
2018-12-27T03:37:39.569Z,2.10
2018-12-27T03:40:10.235Z,2.00
2018-12-27T03:42:41.118Z,2.00
2018-12-27T03:45:12.170Z,2.10
2018-12-27T03:47:43.282Z,2.00
2018-12-27T03:50:14.502Z,2.00
2018-12-27T03:52:45.403Z,2.00
2018-12-27T03:55:17.529Z,2.00
2018-12-27T03:57:48.235Z,2.00
2018-12-27T04:00:19.048Z,2.00
2018-12-27T04:02:50.049Z,2.00
2018-12-27T04:05:20.716Z,2.00
2018-12-27T04:07:51.555Z,2.00
2018-12-27T04:10:22.701Z,2.10
2018-12-27T04:12:53.556Z,2.10
2018-12-27T04:15:24.151Z,2.10
2018-12-27T04:17:54.774Z,2.10
2018-12-27T04:20:25.724Z,2.10
2018-12-27T04:22:56.538Z,2.10
2018-12-27T04:25:28.094Z,2.10
2018-12-27T04:27:58.758Z,2.10
2018-12-27T04:30:29.747Z,2.10
2018-12-27T04:33:00.809Z,2.10
2018-12-27T04:35:31.818Z,2.10
2018-12-27T04:38:02.860Z,2.10
2018-12-27T04:40:33.736Z,2.10
2018-12-27T04:43:04.802Z,2.10
2018-12-27T04:45:36.858Z,2.20
2018-12-27T04:48:07.814Z,2.10
2018-12-27T04:50:38.844Z,2.20
2018-12-27T04:53:09.584Z,2.20
2018-12-27T04:55:40.641Z,2.20
2018-12-27T04:58:11.686Z,2.20
2018-12-27T05:00:42.969Z,2.10
2018-12-27T05:03:14.274Z,2.10
2018-12-27T05:05:45.236Z,2.00
2018-12-27T05:08:16.598Z,2.00
2018-12-27T05:10:47.522Z,2.00
2018-12-27T05:13:18.097Z,2.00
2018-12-27T05:15:48.857Z,1.90
2018-12-27T05:18:19.704Z,1.90
2018-12-27T05:20:50.510Z,1.90
2018-12-27T05:23:21.238Z,1.80
2018-12-27T05:25:52.043Z,1.80
2018-12-27T05:28:22.540Z,1.80
2018-12-27T05:30:53.473Z,1.80
2018-12-27T05:33:24.191Z,1.80
2018-12-27T05:35:54.708Z,1.80
2018-12-27T05:38:26.636Z,1.80
2018-12-27T05:40:57.525Z,1.70
2018-12-27T05:43:28.249Z,1.70
2018-12-27T05:45:59.416Z,1.70
2018-12-27T05:48:30.566Z,1.70
2018-12-27T05:51:01.245Z,1.70
2018-12-27T05:53:31.784Z,1.60
2018-12-27T05:56:02.951Z,1.60
2018-12-27T05:58:33.775Z,1.60
2018-12-27T06:01:04.650Z,1.60
2018-12-27T06:03:35.375Z,1.60
2018-12-27T06:06:06.428Z,1.60
2018-12-27T06:08:37.739Z,1.60
2018-12-27T06:11:08.861Z,1.60
2018-12-27T06:13:39.405Z,1.60
2018-12-27T06:16:10.384Z,1.60
2018-12-27T06:18:41.525Z,1.70
2018-12-27T06:21:12.239Z,1.70
2018-12-27T06:23:42.856Z,1.70
2018-12-27T06:26:14.802Z,1.70
2018-12-27T06:28:45.670Z,1.70
2018-12-27T06:31:16.716Z,1.70
2018-12-27T06:33:47.888Z,1.60
2018-12-27T06:36:19.050Z,1.70
2018-12-27T06:38:49.936Z,1.70
2018-12-27T06:41:20.903Z,1.70
2018-12-27T06:43:52.135Z,1.60
2018-12-27T06:46:23.198Z,1.60
2018-12-27T06:48:53.925Z,1.60
2018-12-27T06:51:25.046Z,1.60
2018-12-27T06:53:55.809Z,1.60
2018-12-27T06:56:26.446Z,1.50
2018-12-27T06:58:57.385Z,1.60
2018-12-27T07:01:28.087Z,1.50
2018-12-27T07:03:58.901Z,1.50
2018-12-27T07:06:30.034Z,1.50
2018-12-27T07:09:01.374Z,1.50
2018-12-27T07:11:33.634Z,1.60
2018-12-27T07:14:05.006Z,1.50
2018-12-27T07:16:36.131Z,1.50
2018-12-27T07:19:06.741Z,1.50
2018-12-27T07:21:37.805Z,1.50
2018-12-27T07:24:08.412Z,1.50
2018-12-27T07:26:39.405Z,1.50
2018-12-27T07:29:10.101Z,1.50
2018-12-27T07:31:41.128Z,1.60
2018-12-27T07:34:11.960Z,1.50
2018-12-27T07:36:43.009Z,1.50
2018-12-27T07:39:14.690Z,1.50
2018-12-27T07:41:45.738Z,1.60
2018-12-27T07:44:16.492Z,1.50
2018-12-27T07:46:47.426Z,1.50
2018-12-27T07:49:18.578Z,1.50
2018-12-27T07:51:49.969Z,1.50
2018-12-27T07:54:22.061Z,1.50
2018-12-27T07:56:52.642Z,1.60
2018-12-27T07:59:23.289Z,1.60
2018-12-27T08:01:54.136Z,1.60
2018-12-27T08:04:25.773Z,1.60
2018-12-27T08:06:56.748Z,1.60
2018-12-27T08:09:27.346Z,1.60
2018-12-27T08:11:57.970Z,1.60
2018-12-27T08:14:28.545Z,1.60
2018-12-27T08:16:59.769Z,1.60
2018-12-27T08:19:31.032Z,1.60
2018-12-27T08:22:01.895Z,1.60
2018-12-27T08:24:33.216Z,1.70
2018-12-27T08:27:04.361Z,1.70
2018-12-27T08:29:35.256Z,1.70
2018-12-27T08:32:06.163Z,1.70
2018-12-27T08:34:37.204Z,1.70
2018-12-27T08:37:07.875Z,1.70
2018-12-27T08:39:38.950Z,1.70
2018-12-27T08:42:09.551Z,1.80
2018-12-27T08:44:40.116Z,1.80
2018-12-27T08:47:10.658Z,1.80
2018-12-27T08:49:41.936Z,1.80
2018-12-27T08:52:12.729Z,1.80
2018-12-27T08:54:43.683Z,1.90
2018-12-27T08:57:14.501Z,1.90
2018-12-27T08:59:45.635Z,1.90
2018-12-27T09:02:16.705Z,1.90
2018-12-27T09:04:47.669Z,1.90
2018-12-27T09:07:18.808Z,1.90
2018-12-27T09:09:49.656Z,1.90
2018-12-27T09:12:20.455Z,1.90
2018-12-27T09:14:51.553Z,2.00
2018-12-27T09:17:22.250Z,2.00
2018-12-27T09:19:52.953Z,2.00
2018-12-27T09:22:23.909Z,2.10
2018-12-27T09:24:55.132Z,2.10
2018-12-27T09:27:26.113Z,2.20
2018-12-27T09:29:57.512Z,2.20
2018-12-27T09:32:28.384Z,2.30
2018-12-27T09:34:59.292Z,2.30
2018-12-27T09:37:29.836Z,2.30
2018-12-27T09:40:00.631Z,2.30
2018-12-27T09:42:31.703Z,2.30
2018-12-27T09:45:02.370Z,2.30
2018-12-27T09:47:33.998Z,2.40
2018-12-27T09:50:05.092Z,2.40
2018-12-27T09:52:35.748Z,2.50
2018-12-27T09:55:06.772Z,2.60
2018-12-27T09:57:37.868Z,2.60
2018-12-27T10:00:09.241Z,2.70
2018-12-27T10:02:40.244Z,2.70
2018-12-27T10:05:12.921Z,2.70
2018-12-27T10:07:44.078Z,2.70
2018-12-27T10:10:15.145Z,2.80
2018-12-27T10:12:46.077Z,2.90
2018-12-27T10:15:17.132Z,2.90
2018-12-27T10:17:48.256Z,3.00
2018-12-27T10:20:19.018Z,3.00
2018-12-27T10:22:50.008Z,3.10
2018-12-27T10:25:20.869Z,3.10
2018-12-27T10:27:51.705Z,3.20
2018-12-27T10:30:22.852Z,3.20
2018-12-27T10:32:53.605Z,3.20
2018-12-27T10:35:24.251Z,3.20
2018-12-27T10:37:55.316Z,3.20
2018-12-27T10:40:26.239Z,3.10
2018-12-27T10:42:57.585Z,3.10
2018-12-27T10:45:28.334Z,3.10
2018-12-27T10:47:59.072Z,3.20
2018-12-27T10:50:34.785Z,3.20
2018-12-27T10:53:05.807Z,3.20
2018-12-27T10:55:36.542Z,3.20
2018-12-27T10:58:07.034Z,3.30
2018-12-27T11:00:38.039Z,3.30
2018-12-27T11:03:09.248Z,3.30
2018-12-27T11:05:40.715Z,3.40
2018-12-27T11:08:11.748Z,3.30
2018-12-27T11:10:42.560Z,3.30
2018-12-27T11:13:13.317Z,3.30
2018-12-27T11:15:44.277Z,3.30
2018-12-27T11:18:15.404Z,3.30
2018-12-27T11:20:46.602Z,3.30
2018-12-27T11:23:17.601Z,3.20
2018-12-27T11:25:48.621Z,3.20
2018-12-27T11:28:19.686Z,3.30
2018-12-27T11:30:50.497Z,3.20
2018-12-27T11:33:21.455Z,3.20
2018-12-27T11:35:55.697Z,3.20
2018-12-27T11:38:25.257Z,3.20
2018-12-27T11:40:55.976Z,3.30
2018-12-27T11:43:26.778Z,3.30
2018-12-27T11:45:57.506Z,3.30
2018-12-27T11:48:28.162Z,3.40
2018-12-27T11:50:59.176Z,3.40
2018-12-27T11:53:30.186Z,3.40
2018-12-27T11:56:01.005Z,3.40
2018-12-27T11:58:32.173Z,3.30
2018-12-27T12:01:02.909Z,3.40
2018-12-27T12:03:34.136Z,3.30
2018-12-27T12:06:04.829Z,3.20
2018-12-27T12:08:35.891Z,3.20
2018-12-27T12:11:07.072Z,3.20
2018-12-27T12:13:38.718Z,3.20
2018-12-27T12:16:09.918Z,3.20
2018-12-27T12:18:40.817Z,3.20
2018-12-27T12:21:11.692Z,3.20
2018-12-27T12:23:42.699Z,3.20
2018-12-27T12:26:13.989Z,3.10
2018-12-27T12:28:44.688Z,3.10
2018-12-27T12:31:15.881Z,3.10
2018-12-27T12:33:46.647Z,3.00
2018-12-27T12:36:17.632Z,3.00
2018-12-27T12:38:49.428Z,3.00
2018-12-27T12:41:21.157Z,3.00
2018-12-27T12:43:51.726Z,3.00
2018-12-27T12:46:24.253Z,3.00
2018-12-27T12:48:55.389Z,3.00
2018-12-27T12:51:26.392Z,3.00
2018-12-27T12:53:57.204Z,2.90
2018-12-27T12:56:28.033Z,2.90
2018-12-27T12:58:59.109Z,2.90
2018-12-27T13:01:29.757Z,2.90
2018-12-27T13:04:00.453Z,2.90
2018-12-27T13:06:31.141Z,2.80
2018-12-27T13:09:01.633Z,2.80
2018-12-27T13:11:33.568Z,2.80
2018-12-27T13:14:04.765Z,2.70
2018-12-27T13:16:35.457Z,2.70
2018-12-27T13:19:06.744Z,2.70
2018-12-27T13:21:37.720Z,2.70
2018-12-27T13:24:08.966Z,2.70
2018-12-27T13:26:40.136Z,2.70
2018-12-27T13:29:11.267Z,2.70
2018-12-27T13:31:41.977Z,2.70
2018-12-27T13:34:12.519Z,2.70
2018-12-27T13:36:43.377Z,2.70
2018-12-27T13:39:14.132Z,2.70
2018-12-27T13:41:45.252Z,2.70
2018-12-27T13:44:15.825Z,2.70
2018-12-27T13:46:46.601Z,2.70
2018-12-27T13:49:17.202Z,2.70
2018-12-27T13:51:47.731Z,2.70
2018-12-27T13:54:18.758Z,2.70
2018-12-27T13:56:49.560Z,2.70
2018-12-27T13:59:20.525Z,2.60
2018-12-27T14:01:51.331Z,2.60
2018-12-27T14:04:22.125Z,2.60
2018-12-27T14:06:53.088Z,2.50
2018-12-27T14:09:23.698Z,2.50
2018-12-27T14:11:54.532Z,2.50
2018-12-27T14:14:25.477Z,2.50
2018-12-27T14:16:56.208Z,2.50
2018-12-27T14:19:27.469Z,2.40
2018-12-27T14:21:58.517Z,2.40
2018-12-27T14:24:29.425Z,2.40
2018-12-27T14:27:01.432Z,2.40
2018-12-27T14:29:32.092Z,2.40
2018-12-27T14:32:02.769Z,2.40
2018-12-27T14:34:33.710Z,2.30
2018-12-27T14:37:04.377Z,2.40
2018-12-27T14:39:35.351Z,2.30
2018-12-27T14:42:06.965Z,2.30
2018-12-27T14:44:38.179Z,2.30
2018-12-27T14:47:09.129Z,2.30
2018-12-27T14:49:40.194Z,2.30
2018-12-27T14:52:10.869Z,2.30
2018-12-27T14:54:41.741Z,2.30
2018-12-27T14:57:12.649Z,2.30
2018-12-27T14:59:43.606Z,2.30
2018-12-27T15:02:14.258Z,2.30
2018-12-27T15:04:45.976Z,2.20
2018-12-27T15:07:17.407Z,2.20
2018-12-27T15:09:48.169Z,2.20
2018-12-27T15:12:19.273Z,2.20
2018-12-27T15:14:50.402Z,2.10
2018-12-27T15:17:21.254Z,2.10
2018-12-27T15:19:51.910Z,2.10
2018-12-27T15:22:22.699Z,2.10
2018-12-27T15:24:54.208Z,2.10
2018-12-27T15:27:25.340Z,2.10
2018-12-27T15:29:56.441Z,2.10
2018-12-27T15:32:27.412Z,2.10
2018-12-27T15:34:58.619Z,2.00
2018-12-27T15:37:30.313Z,2.10
2018-12-27T15:40:01.309Z,2.10
2018-12-27T15:42:33.008Z,2.00
2018-12-27T15:45:04.741Z,2.00
2018-12-27T15:47:35.681Z,2.00
2018-12-27T15:50:06.556Z,2.00
2018-12-27T15:52:37.133Z,2.10
2018-12-27T15:55:08.372Z,2.10
2018-12-27T15:57:39.381Z,2.10
2018-12-27T16:00:10.568Z,2.10
2018-12-27T16:02:41.668Z,2.10
2018-12-27T16:05:12.974Z,2.10
2018-12-27T16:07:43.717Z,2.10
2018-12-27T16:10:15.040Z,2.10
2018-12-27T16:12:45.972Z,2.10
2018-12-27T16:15:16.472Z,2.10
2018-12-27T16:17:47.468Z,2.10
2018-12-27T16:20:19.220Z,2.10
2018-12-27T16:22:50.089Z,2.10
2018-12-27T16:25:21.135Z,2.10
2018-12-27T16:27:51.934Z,2.00
2018-12-27T16:30:22.753Z,2.00
2018-12-27T16:32:53.783Z,2.00
2018-12-27T16:35:25.297Z,2.00
2018-12-27T16:37:57.582Z,2.00
2018-12-27T16:40:29.161Z,2.00
2018-12-27T16:43:00.170Z,2.00
2018-12-27T16:45:31.058Z,2.00
2018-12-27T16:48:02.138Z,2.00
2018-12-27T16:50:32.946Z,2.00
2018-12-27T16:53:04.118Z,2.00
2018-12-27T16:55:35.029Z,2.00
2018-12-27T16:58:05.701Z,2.00
2018-12-27T17:00:36.380Z,1.90
2018-12-27T17:03:07.150Z,1.90
2018-12-27T17:05:38.264Z,2.00
2018-12-27T17:08:09.288Z,1.90
2018-12-27T17:10:40.307Z,1.90
2018-12-27T17:13:11.028Z,2.00
2018-12-27T17:15:42.277Z,2.00
2018-12-27T17:18:12.989Z,1.90
2018-12-27T17:20:43.770Z,1.90
2018-12-27T17:23:14.622Z,1.90
2018-12-27T17:25:45.587Z,1.90
2018-12-27T17:28:16.867Z,1.90
2018-12-27T17:30:47.719Z,1.90
2018-12-27T17:33:18.544Z,1.90
2018-12-27T17:35:49.301Z,1.90
2018-12-27T17:38:19.997Z,1.90
2018-12-27T17:40:51.352Z,1.90
2018-12-27T17:43:22.199Z,1.90
2018-12-27T17:45:53.209Z,1.90
2018-12-27T17:48:23.957Z,2.00
2018-12-27T17:50:54.887Z,2.00
2018-12-27T17:53:26.055Z,2.00
2018-12-27T17:55:56.761Z,2.00
2018-12-27T17:58:27.714Z,2.00
2018-12-27T18:00:58.585Z,1.90
2018-12-27T18:03:29.746Z,1.90
2018-12-27T18:06:00.472Z,1.90
2018-12-27T18:08:31.532Z,1.90
2018-12-27T18:11:02.490Z,1.90
2018-12-27T18:13:33.306Z,1.90
2018-12-27T18:16:06.005Z,1.90
2018-12-27T18:18:37.238Z,1.90
2018-12-27T18:21:08.084Z,1.90
2018-12-27T18:23:38.969Z,1.90
2018-12-27T18:26:09.674Z,1.90
2018-12-27T18:28:40.559Z,1.90
2018-12-27T18:31:11.228Z,1.90
2018-12-27T18:33:42.348Z,1.90
2018-12-27T18:36:13.529Z,1.90
2018-12-27T18:38:44.549Z,1.90
2018-12-27T18:41:16.632Z,1.90
2018-12-27T18:43:47.347Z,1.80
2018-12-27T18:46:18.098Z,1.90
2018-12-27T18:48:48.942Z,1.90
2018-12-27T18:51:19.972Z,1.90
2018-12-27T18:53:50.745Z,1.90
2018-12-27T18:56:21.406Z,1.80
2018-12-27T18:58:52.508Z,1.80
2018-12-27T19:01:23.636Z,1.80
2018-12-27T19:03:54.321Z,1.80
2018-12-27T19:06:25.176Z,1.80
2018-12-27T19:08:55.941Z,1.80
2018-12-27T19:12:02.245Z,1.80
2018-12-27T19:14:33.190Z,1.80
2018-12-27T19:17:03.996Z,1.80
2018-12-27T19:19:35.067Z,1.80
2018-12-27T19:22:37.877Z,1.80
2018-12-27T19:25:09.083Z,1.80
2018-12-27T19:27:41.025Z,1.80
2018-12-27T19:30:11.979Z,1.80
2018-12-27T19:32:42.808Z,1.70
2018-12-27T19:35:13.941Z,1.70
2018-12-27T19:37:51.909Z,1.70
2018-12-27T19:40:18.457Z,1.70
2018-12-27T19:42:49.393Z,1.70
2018-12-27T19:45:21.948Z,1.70
2018-12-27T19:47:53.018Z,1.70
2018-12-27T19:50:23.705Z,1.70
2018-12-27T19:52:54.937Z,1.70
2018-12-27T19:55:26.190Z,1.70
2018-12-27T19:57:57.241Z,1.70
2018-12-27T20:00:27.977Z,1.70
2018-12-27T20:02:58.920Z,1.70
2018-12-27T20:05:29.799Z,1.70
2018-12-27T20:08:00.609Z,1.70
2018-12-27T20:10:31.787Z,1.70
2018-12-27T20:13:02.413Z,1.70
2018-12-27T20:15:33.353Z,1.70
2018-12-27T20:18:04.640Z,1.70
2018-12-27T20:20:35.486Z,1.70
2018-12-27T20:23:06.064Z,1.60
2018-12-27T20:25:37.066Z,1.70
2018-12-27T20:28:08.012Z,1.60
2018-12-27T20:30:38.863Z,1.70
2018-12-27T20:33:09.862Z,1.70
2018-12-27T20:35:41.182Z,1.70
2018-12-27T20:38:11.963Z,1.70
2018-12-27T20:40:42.608Z,1.70
2018-12-27T20:43:13.617Z,1.70
2018-12-27T20:45:44.809Z,1.70
2018-12-27T20:48:15.772Z,1.70
2018-12-27T20:50:46.784Z,1.70
2018-12-27T20:53:17.789Z,1.70
2018-12-27T20:55:48.572Z,1.70
2018-12-27T20:58:19.337Z,1.70
2018-12-27T21:00:50.433Z,1.70
2018-12-27T21:03:21.239Z,1.70
2018-12-27T21:05:51.863Z,1.70
2018-12-27T21:08:22.965Z,1.70
2018-12-27T21:10:53.969Z,1.70
2018-12-27T21:13:25.104Z,1.70
2018-12-27T21:15:55.793Z,1.70
2018-12-27T21:18:26.757Z,1.70
2018-12-27T21:20:57.863Z,1.70
2018-12-27T21:23:29.165Z,1.70
2018-12-27T21:26:00.069Z,1.60
2018-12-27T21:28:32.900Z,1.60
2018-12-27T21:31:03.678Z,1.60
2018-12-27T21:33:34.673Z,1.60
2018-12-27T21:36:05.804Z,1.60
2018-12-27T21:38:36.588Z,1.60
2018-12-27T21:41:07.277Z,1.60
2018-12-27T21:43:38.692Z,1.60
2018-12-27T21:46:09.654Z,1.60
2018-12-27T21:48:40.847Z,1.60
2018-12-27T21:51:12.049Z,1.60
2018-12-27T21:53:42.927Z,1.60
2018-12-27T21:56:13.731Z,1.50
2018-12-27T21:58:44.656Z,1.50
2018-12-27T22:01:15.447Z,1.50
2018-12-27T22:03:46.444Z,1.50
2018-12-27T22:06:17.056Z,1.50
2018-12-27T22:08:48.109Z,1.50
2018-12-27T22:11:19.091Z,1.40
2018-12-27T22:13:50.107Z,1.40
2018-12-27T22:16:20.895Z,1.40
2018-12-27T22:18:51.871Z,1.30
2018-12-27T22:21:22.533Z,1.30
2018-12-27T22:23:53.505Z,1.30
2018-12-27T22:26:24.777Z,1.30
2018-12-27T22:28:55.389Z,1.30
2018-12-27T22:31:26.326Z,1.30
2018-12-27T22:33:57.420Z,1.30
2018-12-27T22:36:28.180Z,1.20
2018-12-27T22:38:58.652Z,1.20
2018-12-27T22:41:29.221Z,1.20
2018-12-27T22:43:59.769Z,1.20
2018-12-27T22:46:30.458Z,1.20
2018-12-27T22:49:01.181Z,1.20
2018-12-27T22:51:32.444Z,1.20
2018-12-27T22:54:03.064Z,1.10
2018-12-27T22:56:34.023Z,1.20
2018-12-27T22:59:06.282Z,1.10
2018-12-27T23:01:37.226Z,1.10
2018-12-27T23:04:09.330Z,1.10
2018-12-27T23:06:41.450Z,1.10
2018-12-27T23:09:12.171Z,1.10
2018-12-27T23:11:42.987Z,1.10
2018-12-27T23:14:14.216Z,1.10
2018-12-27T23:16:44.877Z,1.10
2018-12-27T23:19:15.981Z,1.10
2018-12-27T23:21:46.685Z,1.00
2018-12-27T23:24:17.732Z,1.00
2018-12-27T23:26:48.992Z,1.00
2018-12-27T23:29:19.684Z,1.00
2018-12-27T23:31:50.581Z,1.10
2018-12-27T23:34:22.820Z,1.10
2018-12-27T23:36:53.885Z,1.00
2018-12-27T23:39:24.607Z,1.10
2018-12-27T23:41:55.438Z,1.10
2018-12-27T23:44:26.470Z,1.10
2018-12-27T23:46:57.108Z,1.10
2018-12-27T23:49:27.610Z,1.10
2018-12-27T23:51:58.161Z,1.10
2018-12-27T23:54:30.750Z,1.00
2018-12-27T23:57:01.621Z,1.00
2018-12-27T23:59:32.424Z,1.00
